Time;durP1;ratioP1;P1;durP2;ratioP2;P2;SDS_P1;SDS_P2;PMS_P1;PMS_P2;Temp;Humidity;BMP_temperature;BMP_pressure;BME280_temperature;BME280_humidity;BME280_pressure;Samples;Min_cycle;Max_cycle;Signal;HPM_P1;HPM_P2
2022/01/05 00:00:20;;;;;;;1.60;1.00;;;;;;;1.09;100.00;91620.63;2081758;28;20022;-84
2022/01/05 00:01:21;;;;;;;1.17;1.08;;;;;;;0.94;100.00;91617.41;2090004;28;20070;-85
2022/01/05 00:02:22;;;;;;;1.25;1.05;;;;;;;1.02;100.00;91612.84;2081605;28;20021;-86
2022/01/05 00:03:23;;;;;;;1.77;1.20;;;;;;;1.07;100.00;91607.88;2081602;28;20080;-85
2022/01/05 00:04:24;;;;;;;3.17;1.05;;;;;;;1.09;100.00;91610.09;2089360;28;20080;-83
2022/01/05 00:05:25;;;;;;;1.50;1.08;;;;;;;1.14;100.00;91609.66;2081563;28;20084;-86
2022/01/05 00:06:26;;;;;;;1.95;1.00;;;;;;;0.93;100.00;91608.03;2081652;28;20461;-84
2022/01/05 00:07:27;;;;;;;1.67;0.90;;;;;;;0.97;100.00;91595.59;2073409;28;20495;-84
2022/01/05 00:08:28;;;;;;;2.72;1.40;;;;;;;0.91;100.00;91592.63;2074638;28;20060;-85
2022/01/05 00:09:29;;;;;;;1.35;1.17;;;;;;;1.02;100.00;91595.16;2073948;28;20375;-85
2022/01/05 00:10:39;;;;;;;0.93;0.82;;;;;;;0.92;100.00;91590.75;2084007;28;20128;-84
2022/01/05 00:11:41;;;;;;;;;;;;;;;0.95;100.00;91592.59;2091403;28;20028;-84
2022/01/05 00:12:42;;;;;;;1.40;0.95;;;;;;;0.95;100.00;91584.72;2084068;28;19909;-83
2022/01/05 00:13:43;;;;;;;1.23;1.00;;;;;;;0.98;100.00;91582.03;2093864;28;21446;-86
2022/01/05 00:14:44;;;;;;;1.48;0.90;;;;;;;0.98;100.00;91576.03;2081517;28;20047;-84
2022/01/05 00:15:45;;;;;;;1.38;0.70;;;;;;;1.02;100.00;91579.38;2089778;28;20662;-85
2022/01/05 00:16:46;;;;;;;1.27;0.95;;;;;;;1.02;100.00;91579.38;2089645;28;20693;-83
2022/01/05 00:17:47;;;;;;;0.77;0.77;;;;;;;0.99;100.00;91570.38;2081644;28;20033;-85
2022/01/05 00:18:48;;;;;;;1.38;1.27;;;;;;;0.96;100.00;91565.16;2081525;28;20036;-86
2022/01/05 00:19:49;;;;;;;0.80;0.80;;;;;;;1.09;100.00;91570.66;2089703;28;20013;-84
2022/01/05 00:20:50;;;;;;;1.13;0.68;;;;;;;1.13;100.00;91573.97;2089862;28;20426;-86
2022/01/05 00:21:51;;;;;;;0.63;0.57;;;;;;;1.14;100.00;91573.59;2097796;28;20025;-83
2022/01/05 00:22:52;;;;;;;0.50;0.50;;;;;;;1.25;100.00;91561.03;2098020;28;20040;-84
2022/01/05 00:23:53;;;;;;;1.27;0.73;;;;;;;1.15;100.00;91566.44;2089630;28;20040;-86
2022/01/05 00:24:54;;;;;;;0.40;0.30;;;;;;;1.20;100.00;91556.22;2081521;28;20431;-87
2022/01/05 00:25:55;;;;;;;0.32;0.30;;;;;;;1.13;100.00;91556.31;2094025;28;20031;-84
2022/01/05 00:26:56;;;;;;;0.20;0.20;;;;;;;1.17;100.00;91561.53;2089717;28;20029;-87
2022/01/05 00:27:57;;;;;;;0.20;0.20;;;;;;;1.28;100.00;91558.78;2081574;28;20047;-83
2022/01/05 00:28:59;;;;;;;1.75;0.35;;;;;;;1.17;100.00;91564.16;2081504;28;20470;-86
2022/01/05 00:30:04;;;;;;;0.20;0.20;;;;;;;1.12;100.00;91559.34;2081563;28;20037;-86
2022/01/05 00:31:05;;;;;;;0.30;0.30;;;;;;;1.31;100.00;91561.34;2090679;28;20028;-85
2022/01/05 00:32:07;;;;;;;0.20;0.20;;;;;;;1.09;100.00;91554.84;2089635;28;20021;-85
2022/01/05 00:33:09;;;;;;;2.25;0.43;;;;;;;1.09;100.00;91558.22;2081884;28;20055;-85
2022/01/05 00:34:10;;;;;;;0.10;0.10;;;;;;;1.14;100.00;91549.16;2081372;28;20021;-86
2022/01/05 00:35:12;;;;;;;0.10;0.10;;;;;;;1.17;100.00;91549.13;2089399;28;20067;-83
2022/01/05 00:36:13;;;;;;;2.90;0.20;;;;;;;1.17;100.00;91548.38;2089698;28;20021;-86
2022/01/05 00:37:15;;;;;;;0.10;0.10;;;;;;;1.22;100.00;91538.16;2089473;28;20124;-85
2022/01/05 00:38:16;;;;;;;0.20;0.20;;;;;;;1.14;100.00;91541.25;2081373;28;20021;-84
2022/01/05 00:39:17;;;;;;;0.20;0.20;;;;;;;1.13;100.00;91539.78;2094740;28;20016;-83
2022/01/05 00:40:21;;;;;;;0.17;0.17;;;;;;;1.07;100.00;91541.38;2098169;28;20036;-85
2022/01/05 00:41:39;;;;;;;0.57;0.20;;;;;;;1.09;100.00;91539.06;2082459;28;20024;-85
2022/01/05 00:42:42;;;;;;;0.30;0.20;;;;;;;0.92;100.00;91548.66;2091945;28;20051;-86
2022/01/05 00:43:43;;;;;;;0.20;0.20;;;;;;;1.12;100.00;91548.81;2089782;28;20068;-83
2022/01/05 00:44:46;;;;;;;0.22;0.20;;;;;;;0.97;100.00;91543.72;2089370;28;21795;-87
2022/01/05 00:45:47;;;;;;;0.52;0.22;;;;;;;0.98;100.00;91550.47;2089671;28;20086;-84
2022/01/05 00:46:48;;;;;;;0.13;0.13;;;;;;;0.97;100.00;91548.25;2089371;28;20067;-85
2022/01/05 00:47:49;;;;;;;0.10;0.10;;;;;;;1.08;100.00;91558.63;2089472;28;20059;-84
2022/01/05 00:48:50;;;;;;;0.20;0.20;;;;;;;1.11;100.00;91542.06;2095736;28;20596;-84
2022/01/05 00:49:51;;;;;;;0.20;0.20;;;;;;;1.13;100.00;91540.53;2080355;28;20025;-84
2022/01/05 00:50:52;;;;;;;0.10;0.10;;;;;;;1.10;100.00;91543.19;2089622;28;20044;-85
2022/01/05 00:51:53;;;;;;;0.20;0.20;;;;;;;1.03;100.00;91543.28;2089328;28;20524;-85
2022/01/05 00:53:00;;;;;;;0.20;0.20;;;;;;;1.23;100.00;91544.19;2076965;28;20424;-85
2022/01/05 00:54:00;;;;;;;0.20;0.20;;;;;;;1.14;100.00;91549.16;2080320;28;20469;-84
2022/01/05 00:55:03;;;;;;;0.10;0.10;;;;;;;1.40;100.00;91545.06;2088446;28;20049;-86
2022/01/05 00:56:04;;;;;;;0.17;0.17;;;;;;;1.43;100.00;91550.28;2081296;28;20025;-86
2022/01/05 00:57:05;;;;;;;0.10;0.10;;;;;;;1.32;100.00;91556.81;2081139;28;20032;-84
2022/01/05 00:58:06;;;;;;;0.10;0.10;;;;;;;1.27;100.00;91555.38;2081260;28;20502;-85
2022/01/05 00:59:07;;;;;;;1.95;0.22;;;;;;;1.29;100.00;91555.00;2081182;28;20021;-85
2022/01/05 01:00:10;;;;;;;1.25;0.30;;;;;;;1.28;100.00;91553.53;2089529;28;20032;-85
2022/01/05 01:01:11;;;;;;;0.10;0.10;;;;;;;1.23;100.00;91565.22;2097844;28;20035;-85
2022/01/05 01:02:13;;;;;;;0.20;0.20;;;;;;;1.15;100.00;91566.44;2081214;28;20516;-84
2022/01/05 01:03:14;;;;;;;0.28;0.20;;;;;;;1.09;100.00;91568.00;2089487;28;20094;-85
2022/01/05 01:04:15;;;;;;;0.47;0.25;;;;;;;1.07;100.00;91565.03;2081111;28;20052;-85
2022/01/05 01:05:16;;;;;;;0.45;0.20;;;;;;;1.16;100.00;91567.94;2089337;28;20021;-85
2022/01/05 01:06:20;;;;;;;0.70;0.40;;;;;;;1.44;100.00;91558.94;2094058;28;20013;-84
2022/01/05 01:07:21;;;;;;;0.10;0.10;;;;;;;1.36;100.00;91553.03;2082107;28;20072;-84
2022/01/05 01:08:22;;;;;;;0.38;0.28;;;;;;;1.26;100.00;91546.75;2081275;28;20034;-85
2022/01/05 01:09:24;;;;;;;0.20;0.20;;;;;;;1.30;100.00;91565.13;2089493;28;20037;-84
2022/01/05 01:10:26;;;;;;;0.20;0.20;;;;;;;1.15;100.00;91567.19;2088929;28;20135;-82
2022/01/05 01:11:29;;;;;;;0.30;0.30;;;;;;;1.36;100.00;91563.56;2089895;28;20021;-84
2022/01/05 01:12:32;;;;;;;0.57;0.30;;;;;;;1.23;100.00;91555.44;2089553;28;20099;-83
2022/01/05 01:13:35;;;;;;;2.20;0.30;;;;;;;1.23;100.00;91555.44;2081655;28;20035;-84
2022/01/05 01:14:42;;;;;;;0.15;0.15;;;;;;;1.30;100.00;91548.59;2081721;28;20022;-85
2022/01/05 01:15:48;;;;;;;0.30;0.30;;;;;;;1.16;100.00;91549.53;2082567;28;20022;-85
2022/01/05 01:16:50;;;;;;;0.20;0.20;;;;;;;1.37;100.00;91553.78;2089922;28;20399;-82
2022/01/05 01:17:51;;;;;;;0.73;0.47;;;;;;;1.28;100.00;91558.78;2089462;28;20031;-84
2022/01/05 01:18:52;;;;;;;0.22;0.22;;;;;;;1.21;100.00;91555.09;2097349;28;20043;-85
2022/01/05 01:19:58;;;;;;;0.30;0.30;;;;;;;1.10;100.00;91556.34;2080979;28;20051;-85
2022/01/05 01:20:59;;;;;;;0.30;0.30;;;;;;;1.28;100.00;91545.63;2086034;28;20129;-84
2022/01/05 01:22:03;;;;;;;0.28;0.28;;;;;;;1.27;100.00;91550.13;2080842;28;20029;-85
2022/01/05 01:23:07;;;;;;;0.30;0.30;;;;;;;1.35;100.00;91559.41;2090132;28;20028;-84
2022/01/05 01:24:10;;;;;;;0.25;0.25;;;;;;;1.25;100.00;91552.41;2084073;28;20059;-85
2022/01/05 01:25:13;;;;;;;0.35;0.30;;;;;;;1.22;100.00;91551.31;2073304;28;20029;-84
2022/01/05 01:26:16;;;;;;;0.70;0.30;;;;;;;1.40;100.00;91553.72;2081345;28;20049;-84
2022/01/05 01:27:20;;;;;;;0.30;0.30;;;;;;;1.16;100.00;91558.16;2078608;28;20028;-84
2022/01/05 01:28:23;;;;;;;0.35;0.35;;;;;;;1.20;100.00;91563.38;2077363;28;20033;-84
2022/01/05 01:29:24;;;;;;;0.40;0.40;;;;;;;1.15;100.00;91561.94;2081713;28;20379;-82
2022/01/05 01:30:25;;;;;;;0.75;0.50;;;;;;;1.20;100.00;91558.84;2080942;28;20033;-85
2022/01/05 01:31:32;;;;;;;0.40;0.40;;;;;;;1.11;100.00;91565.75;2089109;28;20039;-85
2022/01/05 01:32:33;;;;;;;0.40;0.40;;;;;;;1.14;100.00;91559.69;2089942;28;20033;-85
2022/01/05 01:33:34;;;;;;;0.40;0.38;;;;;;;1.27;100.00;91555.38;2089117;28;20092;-84
2022/01/05 01:34:35;;;;;;;2.78;0.55;;;;;;;1.20;100.00;91550.22;2086280;28;20025;-84
2022/01/05 01:35:37;;;;;;;0.50;0.50;;;;;;;1.21;100.00;91549.81;2089191;28;20059;-82
2022/01/05 01:36:38;;;;;;;0.30;0.30;;;;;;;1.12;100.00;91559.34;2089240;28;20029;-86
2022/01/05 01:37:41;;;;;;;0.40;0.40;;;;;;;1.15;100.00;91550.66;2089021;28;20443;-85
2022/01/05 01:38:45;;;;;;;0.35;0.35;;;;;;;1.13;100.00;91568.72;2081840;28;20097;-85
2022/01/05 01:39:46;;;;;;;0.40;0.40;;;;;;;1.09;100.00;91560.13;2089959;28;20024;-85
2022/01/05 01:40:49;;;;;;;0.35;0.30;;;;;;;1.14;100.00;91576.22;2104655;28;20740;-85
2022/01/05 01:41:50;;;;;;;0.22;0.22;;;;;;;1.21;100.00;91578.03;2105415;28;20038;-87
2022/01/05 01:42:51;;;;;;;0.60;0.40;;;;;;;1.23;100.00;91581.03;2089077;28;20025;-86
2022/01/05 01:44:06;;;;;;;1.25;0.40;;;;;;;1.21;100.00;91586.66;2097297;28;20588;-85
2022/01/05 01:45:07;;;;;;;0.30;0.30;;;;;;;1.14;100.00;91583.34;2099247;28;20024;-85
2022/01/05 01:46:08;;;;;;;0.40;0.40;;;;;;;1.25;100.00;91579.47;2097151;28;20059;-85
2022/01/05 01:47:09;;;;;;;1.67;0.30;;;;;;;1.17;100.00;91577.31;2089182;28;20350;-85
2022/01/05 01:48:10;;;;;;;0.30;0.30;;;;;;;1.25;100.00;91578.72;2080742;28;20025;-85
2022/01/05 01:49:12;;;;;;;0.30;0.30;;;;;;;1.18;100.00;91576.16;2074867;28;20022;-86
2022/01/05 01:50:16;;;;;;;0.60;0.40;;;;;;;1.34;100.00;91576.34;2083249;28;20049;-86
2022/01/05 01:51:20;;;;;;;1.58;0.50;;;;;;;1.42;100.00;91580.41;2089514;28;20069;-86
2022/01/05 01:52:22;;;;;;;0.68;0.30;;;;;;;1.51;100.00;91582.53;2081850;28;20029;-86
2022/01/05 01:53:26;;;;;;;0.40;0.35;;;;;;;1.48;100.00;91583.31;2080957;28;20053;-85
2022/01/05 01:54:28;;;;;;;0.40;0.40;;;;;;;1.40;100.00;91584.56;2085939;28;20092;-85
2022/01/05 01:55:37;;;;;;;0.75;0.32;;;;;;;1.28;100.00;91583.22;2105681;28;20047;-86
2022/01/05 01:56:39;;;;;;;0.95;0.30;;;;;;;1.32;100.00;91586.56;2090016;28;20025;-87
2022/01/05 01:57:46;;;;;;;0.35;0.35;;;;;;;1.27;100.00;91584.34;2089485;28;20021;-86
2022/01/05 01:58:48;;;;;;;0.95;0.30;;;;;;;1.11;100.00;91584.91;2089839;28;20658;-86
2022/01/05 01:59:49;;;;;;;0.60;0.50;;;;;;;1.14;100.00;91593.88;2081259;28;20191;-84
2022/01/05 02:00:52;;;;;;;0.30;0.22;;;;;;;1.10;100.00;91585.28;2080665;28;20021;-86
2022/01/05 02:01:55;;;;;;;0.30;0.30;;;;;;;1.11;100.00;91587.53;2073446;28;20081;-86
2022/01/05 02:02:59;;;;;;;0.20;0.20;;;;;;;1.02;100.00;91594.41;2073023;28;20128;-85
2022/01/05 02:04:01;;;;;;;0.40;0.35;;;;;;;1.09;100.00;91589.81;2081773;28;20029;-86
2022/01/05 02:05:09;;;;;;;0.30;0.30;;;;;;;1.09;100.00;91599.59;2089520;28;20049;-86
2022/01/05 02:06:10;;;;;;;0.30;0.30;;;;;;;0.94;100.00;91591.84;2090016;28;20025;-86
2022/01/05 02:07:11;;;;;;;0.30;0.30;;;;;;;1.00;100.00;91585.00;2089177;28;20166;-87
2022/01/05 02:08:12;;;;;;;0.20;0.20;;;;;;;1.28;100.00;91588.47;2088981;28;20078;-84
2022/01/05 02:09:13;;;;;;;0.20;0.20;;;;;;;1.16;100.00;91595.00;2074709;28;20049;-84
2022/01/05 02:10:15;;;;;;;0.30;0.30;;;;;;;1.06;100.00;91581.97;2080497;28;20055;-85
2022/01/05 02:11:18;;;;;;;1.10;0.35;;;;;;;1.09;100.00;91581.16;2097295;28;20040;-86
2022/01/05 02:12:19;;;;;;;0.40;0.30;;;;;;;1.26;100.00;91570.44;2089073;28;20017;-86
2022/01/05 02:13:21;;;;;;;0.20;0.20;;;;;;;1.16;100.00;91575.84;2080757;28;20913;-85
2022/01/05 02:14:22;;;;;;;0.40;0.30;;;;;;;1.06;100.00;91572.19;2088941;28;20044;-85
2022/01/05 02:15:23;;;;;;;0.20;0.20;;;;;;;1.15;100.00;91569.09;2089227;28;20742;-86
2022/01/05 02:16:33;;;;;;;0.20;0.20;;;;;;;1.19;100.00;91570.53;2089097;28;20025;-85
2022/01/05 02:17:55;;;;;;;1.25;0.20;;;;;;;1.17;100.00;91570.16;2102203;28;20066;-84
2022/01/05 02:18:59;;;;;;;0.20;0.20;;;;;;;1.21;100.00;91581.41;2091915;28;20035;-85
2022/01/05 02:20:00;;;;;;;0.85;0.15;;;;;;;0.92;100.00;91583.63;2089398;28;20033;-86
2022/01/05 02:21:11;;;;;;;0.20;0.20;;;;;;;1.06;100.00;91582.72;2082507;28;20045;-86
2022/01/05 02:22:12;;;;;;;0.25;0.22;;;;;;;0.85;100.00;91580.31;2090301;28;20669;-86
2022/01/05 02:23:13;;;;;;;0.10;0.10;;;;;;;0.68;100.00;91574.84;2084129;28;20071;-85
2022/01/05 02:24:14;;;;;;;0.85;0.20;;;;;;;0.75;100.00;91585.28;2097402;28;20027;-86
2022/01/05 02:25:38;;;;;;;0.28;0.20;;;;;;;0.70;100.00;91590.97;2105766;28;20039;-84
2022/01/05 02:26:41;;;;;;;0.80;0.10;;;;;;;0.67;100.00;91581.25;2091981;28;20029;-85
2022/01/05 02:27:45;;;;;;;0.20;0.20;;;;;;;0.86;100.00;91585.16;2081237;28;20025;-86
2022/01/05 02:28:46;;;;;;;0.10;0.10;;;;;;;0.66;100.00;91584.25;2081440;28;20025;-85
2022/01/05 02:29:47;;;;;;;0.45;0.20;;;;;;;0.51;100.00;91591.53;2089337;28;20020;-85
2022/01/05 02:30:52;;;;;;;0.20;0.20;;;;;;;0.63;100.00;91585.03;2092744;28;20017;-85
2022/01/05 02:31:54;;;;;;;0.13;0.13;;;;;;;0.53;100.00;91591.13;2085191;28;20024;-86
2022/01/05 02:32:55;;;;;;;0.28;0.28;;;;;;;0.73;100.00;91594.69;2089220;28;20548;-84
2022/01/05 02:33:56;;;;;;;1.30;0.20;;;;;;;0.40;100.00;91585.63;2105704;28;20885;-85
2022/01/05 02:34:57;;;;;;;0.32;0.15;;;;;;;0.71;100.00;91587.22;2105450;28;20028;-85
2022/01/05 02:35:59;;;;;;;0.20;0.20;;;;;;;0.45;100.00;91599.09;2088919;28;20090;-84
2022/01/05 02:37:00;;;;;;;0.28;0.20;;;;;;;0.32;100.00;91590.19;2088899;28;20048;-84
2022/01/05 02:38:01;;;;;;;0.20;0.20;;;;;;;0.32;100.00;91592.81;2097152;28;20027;-82
2022/01/05 02:39:03;;;;;;;0.20;0.20;;;;;;;0.43;100.00;91598.72;2097465;28;20108;-85
2022/01/05 02:40:05;;;;;;;0.30;0.30;;;;;;;0.27;100.00;91598.50;2113924;28;20023;-83
2022/01/05 02:41:08;;;;;;;0.20;0.20;;;;;;;0.40;100.00;91601.41;2113873;28;20023;-84
2022/01/05 02:42:09;;;;;;;0.20;0.20;;;;;;;0.73;100.00;91595.44;2103448;28;20081;-84
2022/01/05 02:43:10;;;;;;;1.75;0.22;;;;;;;0.54;100.00;91611.03;2088449;28;20025;-84
2022/01/05 02:44:11;;;;;;;0.17;0.17;;;;;;;0.61;100.00;91622.22;2105260;28;20074;-85
2022/01/05 02:45:14;;;;;;;0.20;0.20;;;;;;;0.55;100.00;91607.28;2105255;28;20496;-83
2022/01/05 02:46:26;;;;;;;0.47;0.20;;;;;;;0.71;100.00;91608.25;2097033;28;20587;-85
2022/01/05 02:47:28;;;;;;;0.20;0.20;;;;;;;0.67;100.00;91606.78;2083841;28;20527;-84
2022/01/05 02:48:35;;;;;;;0.10;0.10;;;;;;;0.74;100.00;91604.81;2088990;28;20025;-85
2022/01/05 02:49:42;;;;;;;0.20;0.20;;;;;;;0.68;100.00;91601.13;2090664;28;20075;-85
2022/01/05 02:50:49;;;;;;;0.20;0.20;;;;;;;0.64;100.00;91616.19;2089648;28;20501;-84
2022/01/05 02:51:50;;;;;;;0.47;0.30;;;;;;;0.56;100.00;91612.13;2097960;28;20017;-85
2022/01/05 02:52:51;;;;;;;0.20;0.20;;;;;;;0.67;100.00;91614.69;2105443;28;20024;-85
2022/01/05 02:53:52;;;;;;;0.20;0.20;;;;;;;0.46;100.00;91615.59;2113770;28;20023;-84
2022/01/05 02:54:53;;;;;;;0.10;0.10;;;;;;;0.49;100.00;91609.59;2113831;28;20020;-85
2022/01/05 02:55:54;;;;;;;0.20;0.20;;;;;;;0.53;100.00;91615.56;2105390;28;20091;-84
2022/01/05 02:56:55;;;;;;;0.20;0.10;;;;;;;0.67;100.00;91612.78;2097104;28;20028;-84
2022/01/05 02:57:57;;;;;;;0.10;0.10;;;;;;;0.57;100.00;91610.25;2096904;28;20108;-84
2022/01/05 02:58:59;;;;;;;0.20;0.20;;;;;;;0.53;100.00;91620.03;2089318;28;20017;-84
2022/01/05 03:00:10;;;;;;;0.10;0.10;;;;;;;0.55;100.00;91618.53;2097344;28;20016;-85
2022/01/05 03:01:15;;;;;;;0.10;0.10;;;;;;;0.66;100.00;91613.94;2106915;28;20020;-83
2022/01/05 03:02:16;;;;;;;0.75;0.20;;;;;;;0.63;100.00;91619.97;2096082;28;21544;-84
2022/01/05 03:03:17;;;;;;;0.13;0.13;;;;;;;0.64;100.00;91623.34;2088705;28;20029;-84
2022/01/05 03:04:23;;;;;;;0.40;0.20;;;;;;;0.63;100.00;91617.34;2088951;28;20707;-85
2022/01/05 03:05:24;;;;;;;0.10;0.10;;;;;;;0.60;100.00;91614.72;2093349;28;20155;-85
2022/01/05 03:06:25;;;;;;;0.10;0.10;;;;;;;0.63;100.00;91621.84;2088693;28;20036;-84
2022/01/05 03:07:28;;;;;;;0.10;0.10;;;;;;;0.79;100.00;91610.78;2088738;28;20033;-84
2022/01/05 03:08:29;;;;;;;0.20;0.20;;;;;;;0.66;100.00;91626.31;2089419;28;20032;-84
2022/01/05 03:09:30;;;;;;;0.20;0.20;;;;;;;0.58;100.00;91620.38;2088693;28;20028;-83
2022/01/05 03:10:31;;;;;;;1.17;0.20;;;;;;;0.59;100.00;91610.63;2105197;28;20047;-85
2022/01/05 03:11:32;;;;;;;2.08;0.20;;;;;;;0.75;100.00;91624.75;2097039;28;20056;-84
2022/01/05 03:12:33;;;;;;;0.10;0.10;;;;;;;0.79;100.00;91621.31;2088779;28;20021;-84
2022/01/05 03:13:36;;;;;;;0.10;0.10;;;;;;;0.73;100.00;91616.47;2097973;28;20549;-83
2022/01/05 03:14:41;;;;;;;0.20;0.20;;;;;;;0.46;100.00;91616.34;2090937;28;20025;-84
2022/01/05 03:15:43;;;;;;;0.10;0.10;;;;;;;0.48;100.00;91619.34;2091457;28;20126;-84
2022/01/05 03:16:44;;;;;;;0.40;0.20;;;;;;;0.48;100.00;91618.56;2090743;28;20023;-84
2022/01/05 03:17:46;;;;;;;1.65;0.20;;;;;;;0.47;100.00;91617.09;2098600;28;20329;-84
2022/01/05 03:18:47;;;;;;;0.10;0.10;;;;;;;0.51;100.00;91617.81;2098432;28;20462;-85
2022/01/05 03:19:48;;;;;;;0.10;0.10;;;;;;;0.73;100.00;91618.38;2098460;28;20049;-84
2022/01/05 03:20:49;;;;;;;0.10;0.10;;;;;;;0.63;100.00;91616.59;2090435;28;20195;-83
2022/01/05 03:21:50;;;;;;;0.20;0.20;;;;;;;0.64;100.00;91615.44;2090284;28;20025;-84
2022/01/05 03:22:51;;;;;;;0.10;0.10;;;;;;;0.53;100.00;91623.44;2098331;28;20119;-84
2022/01/05 03:23:52;;;;;;;0.20;0.20;;;;;;;0.59;100.00;91623.75;2090763;28;20017;-84
2022/01/05 03:24:53;;;;;;;0.28;0.20;;;;;;;0.51;100.00;91630.97;2098595;28;20115;-85
2022/01/05 03:25:54;;;;;;;1.75;0.20;;;;;;;0.57;100.00;91626.78;2102362;28;20131;-83
2022/01/05 03:26:55;;;;;;;0.20;0.20;;;;;;;0.61;100.00;91627.47;2106912;28;20150;-85
2022/01/05 03:27:58;;;;;;;0.30;0.30;;;;;;;0.45;100.00;91622.75;2106831;28;20088;-83
2022/01/05 03:28:59;;;;;;;0.10;0.10;;;;;;;0.47;100.00;91623.09;2107168;28;20099;-85
2022/01/05 03:30:00;;;;;;;0.10;0.10;;;;;;;0.74;100.00;91622.47;2106663;28;20030;-85
2022/01/05 03:31:01;;;;;;;0.20;0.20;;;;;;;0.62;100.00;91631.63;2098303;28;20055;-84
2022/01/05 03:32:03;;;;;;;0.20;0.20;;;;;;;0.57;100.00;91628.66;2090139;28;20080;-85
2022/01/05 03:33:09;;;;;;;1.95;0.20;;;;;;;0.41;100.00;91631.78;2090246;28;20501;-85
2022/01/05 03:34:18;;;;;;;1.60;0.20;;;;;;;0.42;100.00;91631.41;2099837;28;20074;-85
2022/01/05 03:35:20;;;;;;;0.22;0.20;;;;;;;0.20;100.00;91636.06;2107866;28;20020;-84
2022/01/05 03:36:21;;;;;;;0.30;0.20;;;;;;;0.32;100.00;91640.13;2098489;28;20759;-83
2022/01/05 03:37:22;;;;;;;0.20;0.20;;;;;;;0.38;100.00;91635.19;2103080;28;20028;-83
2022/01/05 03:38:24;;;;;;;0.13;0.13;;;;;;;0.65;100.00;91637.97;2093652;28;20697;-83
2022/01/05 03:39:24;;;;;;;0.20;0.20;;;;;;;0.40;100.00;91641.56;2098757;28;20029;-84
2022/01/05 03:40:26;;;;;;;0.20;0.20;;;;;;;0.40;100.00;91646.81;2106563;28;20468;-85
2022/01/05 03:41:27;;;;;;;0.20;0.20;;;;;;;0.39;100.00;91645.31;2106593;28;20031;-85
2022/01/05 03:42:28;;;;;;;0.10;0.10;;;;;;;0.35;100.00;91644.63;2100044;28;20024;-84
2022/01/05 03:43:29;;;;;;;2.05;0.20;;;;;;;0.54;100.00;91648.59;2098081;28;20535;-84
2022/01/05 03:44:30;;;;;;;0.88;0.20;;;;;;;0.41;100.00;91650.94;2106776;28;20033;-85
2022/01/05 03:45:31;;;;;;;0.20;0.20;;;;;;;0.38;100.00;91650.97;2114810;28;20073;-85
2022/01/05 03:46:32;;;;;;;0.10;0.10;;;;;;;0.42;100.00;91654.31;2115110;28;20023;-85
2022/01/05 03:47:33;;;;;;;1.35;0.20;;;;;;;0.30;100.00;91652.88;2106518;28;20024;-84
2022/01/05 03:48:34;;;;;;;1.85;0.10;;;;;;;0.31;100.00;91659.66;2106373;28;20062;-82
2022/01/05 03:49:35;;;;;;;0.10;0.10;;;;;;;0.37;100.00;91650.22;2114998;28;20019;-83
2022/01/05 03:50:36;;;;;;;0.10;0.10;;;;;;;0.55;100.00;91662.47;2106575;28;20024;-82
2022/01/05 03:51:37;;;;;;;2.95;0.20;;;;;;;0.40;100.00;91667.84;2095374;28;20056;-83
2022/01/05 03:52:38;;;;;;;0.10;0.10;;;;;;;0.42;100.00;91667.44;2089920;28;20040;-83
2022/01/05 03:53:39;;;;;;;0.10;0.10;;;;;;;0.35;100.00;91673.53;2089945;28;20049;-83
2022/01/05 03:54:40;;;;;;;0.10;0.10;;;;;;;0.29;100.00;91664.53;2098289;28;20020;-85
2022/01/05 03:55:43;;;;;;;0.20;0.20;;;;;;;0.36;100.00;91653.97;2098125;28;20024;-83
2022/01/05 03:56:44;;;;;;;0.10;0.10;;;;;;;0.36;100.00;91676.91;2082263;28;20025;-83
2022/01/05 03:57:45;;;;;;;0.10;0.10;;;;;;;0.35;100.00;91668.25;2090123;28;20107;-84
2022/01/05 03:58:46;;;;;;;0.10;0.10;;;;;;;0.37;100.00;91655.47;2089959;28;20119;-84
2022/01/05 03:59:47;;;;;;;0.10;0.10;;;;;;;0.32;100.00;91658.53;2081601;28;20032;-83
2022/01/05 04:00:50;;;;;;;0.10;0.10;;;;;;;0.38;100.00;91656.97;2088533;28;20025;-84
2022/01/05 04:01:51;;;;;;;0.10;0.10;;;;;;;0.48;100.00;91658.78;2090156;28;20029;-82
2022/01/05 04:02:52;;;;;;;2.55;0.10;;;;;;;0.40;100.00;91665.22;2098257;28;20461;-83
2022/01/05 04:03:53;;;;;;;0.10;0.10;;;;;;;0.45;100.00;91658.81;2089704;28;20763;-86
2022/01/05 04:04:54;;;;;;;0.20;0.20;;;;;;;0.40;100.00;91659.97;2089802;28;20458;-85
2022/01/05 04:05:55;;;;;;;0.30;0.30;;;;;;;0.56;100.00;91658.69;2089635;28;20020;-83
2022/01/05 04:06:55;;;;;;;0.20;0.13;;;;;;;0.57;100.00;91657.56;2081439;28;20874;-84
2022/01/05 04:07:57;;;;;;;0.30;0.30;;;;;;;0.41;100.00;91658.81;2089819;28;20028;-83
2022/01/05 04:08:58;;;;;;;0.17;0.17;;;;;;;0.60;100.00;91662.06;2097898;28;20514;-85
2022/01/05 04:09:59;;;;;;;0.10;0.10;;;;;;;0.56;100.00;91664.72;2088390;28;20454;-84
2022/01/05 04:11:00;;;;;;;2.28;0.43;;;;;;;0.46;100.00;91662.91;2073423;28;20028;-83
2022/01/05 04:12:01;;;;;;;1.80;0.20;;;;;;;0.52;100.00;91666.63;2073309;28;20076;-84
2022/01/05 04:13:02;;;;;;;0.20;0.20;;;;;;;0.55;100.00;91657.97;2081802;28;20022;-84
2022/01/05 04:14:04;;;;;;;0.20;0.20;;;;;;;0.73;100.00;91661.19;2081535;28;20474;-84
2022/01/05 04:15:06;;;;;;;0.32;0.32;;;;;;;0.42;100.00;91670.09;2073699;28;20060;-84
2022/01/05 04:16:08;;;;;;;2.65;0.35;;;;;;;0.49;100.00;91662.16;2081630;28;20128;-85
2022/01/05 04:17:09;;;;;;;0.35;0.35;;;;;;;0.49;100.00;91654.25;2084777;28;20029;-82
2022/01/05 04:18:15;;;;;;;1.50;1.40;;;;;;;0.66;100.00;91645.47;2098266;28;20100;-84
2022/01/05 04:19:23;;;;;;;2.28;2.08;;;;;;;0.57;100.00;91652.31;2088355;28;20038;-85
2022/01/05 04:20:29;;;;;;;0.55;0.50;;;;;;;0.54;100.00;91650.47;2090671;28;20021;-84
2022/01/05 04:21:30;;;;;;;0.40;0.40;;;;;;;0.42;100.00;91651.69;2090497;28;20033;-84
2022/01/05 04:22:31;;;;;;;0.20;0.20;;;;;;;0.54;100.00;91645.97;2089614;28;20041;-82
2022/01/05 04:23:32;;;;;;;0.95;0.20;;;;;;;0.71;100.00;91645.06;2091477;28;20044;-82
2022/01/05 04:24:33;;;;;;;0.20;0.20;;;;;;;0.53;100.00;91648.97;2089152;28;20029;-83
2022/01/05 04:25:35;;;;;;;0.20;0.20;;;;;;;0.42;100.00;91643.78;2073228;28;20026;-82
2022/01/05 04:26:36;;;;;;;0.20;0.20;;;;;;;0.75;100.00;91651.03;2073318;28;20112;-84
2022/01/05 04:27:37;;;;;;;0.20;0.20;;;;;;;0.57;100.00;91657.56;2089525;28;20033;-85
2022/01/05 04:28:40;;;;;;;0.15;0.15;;;;;;;0.48;100.00;91655.38;2089747;28;20112;-83
2022/01/05 04:29:43;;;;;;;0.20;0.20;;;;;;;0.41;100.00;91658.81;2081600;28;20059;-84
2022/01/05 04:30:44;;;;;;;0.20;0.20;;;;;;;0.47;100.00;91661.78;2081525;28;20048;-83
2022/01/05 04:31:45;;;;;;;2.55;0.20;;;;;;;0.67;100.00;91659.38;2081382;28;20045;-84
2022/01/05 04:32:46;;;;;;;0.17;0.17;;;;;;;0.49;100.00;91660.25;2073553;28;20494;-85
2022/01/05 04:33:47;;;;;;;0.20;0.20;;;;;;;0.53;100.00;91667.34;2089719;28;20096;-84
2022/01/05 04:34:48;;;;;;;0.13;0.13;;;;;;;0.53;100.00;91662.88;2096355;28;20036;-84
2022/01/05 04:35:49;;;;;;;0.20;0.20;;;;;;;0.50;100.00;91663.63;2081296;28;20017;-84
2022/01/05 04:36:50;;;;;;;0.20;0.20;;;;;;;0.54;100.00;91663.63;2089545;28;20055;-85
2022/01/05 04:37:51;;;;;;;0.40;0.40;;;;;;;0.46;100.00;91663.66;2089656;28;20110;-84
2022/01/05 04:38:53;;;;;;;5.43;5.13;;;;;;;0.42;100.00;91667.44;2081365;28;20032;-84
2022/01/05 04:39:54;;;;;;;1.80;1.70;;;;;;;0.46;100.00;91676.06;2081577;28;20025;-84
2022/01/05 04:40:55;;;;;;;1.00;1.00;;;;;;;0.50;100.00;91669.63;2081584;28;20088;-84
2022/01/05 04:41:56;;;;;;;1.77;0.50;;;;;;;0.60;100.00;91670.69;2081152;28;20033;-84
2022/01/05 04:42:58;;;;;;;0.63;0.63;;;;;;;0.56;100.00;91671.84;2081334;28;20022;-82
2022/01/05 04:43:58;;;;;;;0.50;0.45;;;;;;;0.55;100.00;91662.47;2089700;28;20150;-83
2022/01/05 04:45:00;;;;;;;0.60;0.50;;;;;;;0.49;100.00;91667.41;2102010;28;20024;-84
2022/01/05 04:46:00;;;;;;;0.50;0.50;;;;;;;0.48;100.00;91656.16;2106048;28;20416;-85
2022/01/05 04:47:02;;;;;;;0.47;0.45;;;;;;;0.82;100.00;91665.25;2084778;28;20113;-83
2022/01/05 04:48:03;;;;;;;0.30;0.30;;;;;;;0.74;100.00;91660.03;2086351;28;20021;-84
2022/01/05 04:49:04;;;;;;;0.30;0.30;;;;;;;0.76;100.00;91662.28;2097881;28;20039;-84
2022/01/05 04:50:08;;;;;;;0.40;0.40;;;;;;;0.60;100.00;91670.69;2089173;28;20032;-84
2022/01/05 04:51:09;;;;;;;0.88;0.38;;;;;;;0.55;100.00;91670.38;2081988;28;20057;-83
2022/01/05 04:52:10;;;;;;;0.88;0.40;;;;;;;0.54;100.00;91667.00;2089489;28;20385;-86
2022/01/05 04:53:13;;;;;;;0.60;0.60;;;;;;;0.49;100.00;91672.66;2097757;28;20028;-83